Gulf — V2BB5 — position and weather

sailwx.info

Track history (hours):
 
Tides and Currents Weather Stations Pressure Air Temp Water Temp Dewpoint Dewpoint Depression Visibility Wind Speed Wind Dir Waves Ship Positions

Gulf

Last reported at 2017-Dec-17 13:52 UTC. Time now 2017-Dec-17 14:08 UTC.
Position N 40°46' E 028°59'.

Length 96 m; draft 3.5 m.

Type: Cargo ship. MMSI: 304320000.

Date/timePositionNaut miles runAvg speedWind from/ knotsBaromVisibWave heightAir tempDewpointWater temp
2017-Dec-17 13:52N 40°46' E 028°59'0 0.5
2017-Dec-17 13:18N 40°46' E 028°59'0 0.6
2017-Dec-17 12:51N 40°46' E 028°59'0 0.8
2017-Dec-17 12:19N 40°46' E 028°58'1 1.0
2017-Dec-17 11:38N 40°45' E 028°58'0 0.9
2017-Dec-17 11:28N 40°45' E 028°58'1 0.7
2017-Dec-17 10:39N 40°45' E 028°57'0 0.7
2017-Dec-17 10:23N 40°45' E 028°57'4 2.5
2017-Dec-17 08:52N 40°47' E 029°00'1 2.1
2017-Dec-17 08:30N 40°48' E 029°01'0 0.8
2017-Dec-17 07:54N 40°48' E 029°01'0 0.9
2017-Dec-17 07:28N 40°47' E 029°00'0 0.9
2017-Dec-17 07:00N 40°47' E 028°60'0 0.7
2017-Dec-17 06:21N 40°47' E 028°60'0 0.6
2017-Dec-17 05:52N 40°47' E 028°59'  
2017-Dec-07 14:34N 45°11' E 036°29'1 6.6
2017-Dec-07 14:25N 45°12' E 036°29'  
Track history (hours):
 
Tides and Currents Weather Stations Pressure Air Temp Water Temp Dewpoint Dewpoint Depression Visibility Wind Speed Wind Dir Waves Ship Positions

Gulf

Last reported at 2017-Dec-17 13:52 UTC. Time now 2017-Dec-17 14:08 UTC.
Position N 40°46' E 028°59'.

Length 96 m; draft 3.5 m.

Type: Cargo ship. MMSI: 304320000.

Date/timePositionNaut miles runAvg speedWind from/ knotsBaromVisibWave heightAir tempDewpointWater temp
2017-Dec-17 13:52N 40°46' E 028°59'0 0.5
2017-Dec-17 13:18N 40°46' E 028°59'0 0.6
2017-Dec-17 12:51N 40°46' E 028°59'0 0.8
2017-Dec-17 12:19N 40°46' E 028°58'1 1.0
2017-Dec-17 11:38N 40°45' E 028°58'0 0.9
2017-Dec-17 11:28N 40°45' E 028°58'1 0.7
2017-Dec-17 10:39N 40°45' E 028°57'0 0.7
2017-Dec-17 10:23N 40°45' E 028°57'4 2.5
2017-Dec-17 08:52N 40°47' E 029°00'1 2.1
2017-Dec-17 08:30N 40°48' E 029°01'0 0.8
2017-Dec-17 07:54N 40°48' E 029°01'0 0.9
2017-Dec-17 07:28N 40°47' E 029°00'0 0.9
2017-Dec-17 07:00N 40°47' E 028°60'0 0.7
2017-Dec-17 06:21N 40°47' E 028°60'0 0.6
2017-Dec-17 05:52N 40°47' E 028°59'  
2017-Dec-07 14:34N 45°11' E 036°29'1 6.6
2017-Dec-07 14:25N 45°12' E 036°29'  

Dump ship's entire track history